sensor_id;sensor_type;location;lat;lon;timestamp;temperature;humidity
25112;DHT22;13092;51.996;4.458;2022-10-17T00:00:48;16.10;99.90
25112;DHT22;13092;51.996;4.458;2022-10-17T00:03:17;16.00;99.90
25112;DHT22;13092;51.996;4.458;2022-10-17T00:05:46;16.10;99.90
25112;DHT22;13092;51.996;4.458;2022-10-17T00:08:16;16.10;99.90
25112;DHT22;13092;51.996;4.458;2022-10-17T00:10:44;16.00;99.90
25112;DHT22;13092;51.996;4.458;2022-10-17T00:13:14;16.00;99.90
25112;DHT22;13092;51.996;4.458;2022-10-17T00:15:42;16.00;99.90
25112;DHT22;13092;51.996;4.458;2022-10-17T00:18:11;16.00;99.90
25112;DHT22;13092;51.996;4.458;2022-10-17T00:20:39;16.00;99.90
25112;DHT22;13092;51.996;4.458;2022-10-17T00:23:07;15.90;99.90
25112;DHT22;13092;51.996;4.458;2022-10-17T00:25:34;15.90;99.90
25112;DHT22;13092;51.996;4.458;2022-10-17T00:28:03;16.00;99.90
25112;DHT22;13092;51.996;4.458;2022-10-17T00:30:32;15.90;99.90
25112;DHT22;13092;51.996;4.458;2022-10-17T00:33:00;16.10;99.90
25112;DHT22;13092;51.996;4.458;2022-10-17T00:35:28;16.00;99.90
25112;DHT22;13092;51.996;4.458;2022-10-17T00:37:56;15.90;99.90
25112;DHT22;13092;51.996;4.458;2022-10-17T00:40:24;15.90;99.90
25112;DHT22;13092;51.996;4.458;2022-10-17T00:42:52;15.90;99.90
25112;DHT22;13092;51.996;4.458;2022-10-17T00:45:23;15.90;99.90
25112;DHT22;13092;51.996;4.458;2022-10-17T00:47:57;15.90;99.90
25112;DHT22;13092;51.996;4.458;2022-10-17T00:50:26;15.90;99.90
25112;DHT22;13092;51.996;4.458;2022-10-17T00:52:57;16.00;99.90
25112;DHT22;13092;51.996;4.458;2022-10-17T00:55:30;15.90;99.90
25112;DHT22;13092;51.996;4.458;2022-10-17T00:58:02;15.90;99.90
25112;DHT22;13092;51.996;4.458;2022-10-17T01:00:31;15.90;99.90
25112;DHT22;13092;51.996;4.458;2022-10-17T01:03:01;15.90;99.90
25112;DHT22;13092;51.996;4.458;2022-10-17T01:05:29;15.80;99.90
25112;DHT22;13092;51.996;4.458;2022-10-17T01:08:00;15.90;99.90
25112;DHT22;13092;51.996;4.458;2022-10-17T01:10:32;15.90;99.90
25112;DHT22;13092;51.996;4.458;2022-10-17T01:13:09;15.80;99.90
25112;DHT22;13092;51.996;4.458;2022-10-17T01:15:48;15.90;99.90
25112;DHT22;13092;51.996;4.458;2022-10-17T01:18:30;16.00;99.90
25112;DHT22;13092;51.996;4.458;2022-10-17T01:21:13;15.90;99.90
25112;DHT22;13092;51.996;4.458;2022-10-17T01:24:16;15.90;99.90
25112;DHT22;13092;51.996;4.458;2022-10-17T01:29:56;15.80;99.90
25112;DHT22;13092;51.996;4.458;2022-10-17T01:32:34;15.80;99.90
25112;DHT22;13092;51.996;4.458;2022-10-17T01:35:07;15.80;99.90
25112;DHT22;13092;51.996;4.458;2022-10-17T01:37:42;15.80;99.90
25112;DHT22;13092;51.996;4.458;2022-10-17T01:40:17;15.80;99.90
25112;DHT22;13092;51.996;4.458;2022-10-17T01:42:52;15.80;99.90
25112;DHT22;13092;51.996;4.458;2022-10-17T01:45:28;15.80;99.90
25112;DHT22;13092;51.996;4.458;2022-10-17T01:48:03;15.80;99.90
25112;DHT22;13092;51.996;4.458;2022-10-17T01:50:34;15.80;99.90
25112;DHT22;13092;51.996;4.458;2022-10-17T01:53:06;15.80;99.90
25112;DHT22;13092;51.996;4.458;2022-10-17T01:55:38;15.70;99.90
25112;DHT22;13092;51.996;4.458;2022-10-17T01:58:10;15.70;99.90
25112;DHT22;13092;51.996;4.458;2022-10-17T02:00:40;15.70;99.90
25112;DHT22;13092;51.996;4.458;2022-10-17T02:03:13;15.70;99.90
25112;DHT22;13092;51.996;4.458;2022-10-17T02:05:43;15.70;99.90
25112;DHT22;13092;51.996;4.458;2022-10-17T02:08:11;15.70;99.90
25112;DHT22;13092;51.996;4.458;2022-10-17T02:10:46;15.70;99.90
25112;DHT22;13092;51.996;4.458;2022-10-17T02:13:19;15.70;99.90
25112;DHT22;13092;51.996;4.458;2022-10-17T02:16:00;15.70;99.90
25112;DHT22;13092;51.996;4.458;2022-10-17T02:18:52;15.70;99.90
25112;DHT22;13092;51.996;4.458;2022-10-17T02:21:32;15.80;99.90
25112;DHT22;13092;51.996;4.458;2022-10-17T02:24:07;15.70;99.90
25112;DHT22;13092;51.996;4.458;2022-10-17T02:26:42;15.60;99.90
25112;DHT22;13092;51.996;4.458;2022-10-17T02:29:15;15.80;99.90
25112;DHT22;13092;51.996;4.458;2022-10-17T02:31:47;15.80;99.90
25112;DHT22;13092;51.996;4.458;2022-10-17T02:34:18;15.90;99.90
25112;DHT22;13092;51.996;4.458;2022-10-17T02:36:51;15.80;99.90
25112;DHT22;13092;51.996;4.458;2022-10-17T02:39:21;15.90;99.90
25112;DHT22;13092;51.996;4.458;2022-10-17T02:41:51;15.80;99.90
25112;DHT22;13092;51.996;4.458;2022-10-17T02:44:21;15.90;99.90
25112;DHT22;13092;51.996;4.458;2022-10-17T02:46:53;15.90;99.90
25112;DHT22;13092;51.996;4.458;2022-10-17T02:49:26;15.90;99.90
25112;DHT22;13092;51.996;4.458;2022-10-17T02:52:01;16.20;99.90
25112;DHT22;13092;51.996;4.458;2022-10-17T02:54:36;16.10;99.90
25112;DHT22;13092;51.996;4.458;2022-10-17T02:57:09;16.10;99.90
25112;DHT22;13092;51.996;4.458;2022-10-17T02:59:39;16.20;99.90
25112;DHT22;13092;51.996;4.458;2022-10-17T03:02:08;16.20;99.90
25112;DHT22;13092;51.996;4.458;2022-10-17T03:04:38;16.20;99.90
25112;DHT22;13092;51.996;4.458;2022-10-17T03:07:09;16.30;99.90
25112;DHT22;13092;51.996;4.458;2022-10-17T03:09:37;16.40;99.90
25112;DHT22;13092;51.996;4.458;2022-10-17T03:12:05;16.30;99.90
25112;DHT22;13092;51.996;4.458;2022-10-17T03:14:33;16.40;99.90
25112;DHT22;13092;51.996;4.458;2022-10-17T03:17:01;16.50;99.90
25112;DHT22;13092;51.996;4.458;2022-10-17T03:19:29;16.50;99.90
25112;DHT22;13092;51.996;4.458;2022-10-17T03:21:58;16.50;99.90
25112;DHT22;13092;51.996;4.458;2022-10-17T03:24:26;16.60;99.90
25112;DHT22;13092;51.996;4.458;2022-10-17T03:26:54;16.80;99.90
25112;DHT22;13092;51.996;4.458;2022-10-17T03:29:22;16.70;99.90
25112;DHT22;13092;51.996;4.458;2022-10-17T03:31:50;16.80;99.90
25112;DHT22;13092;51.996;4.458;2022-10-17T03:34:18;16.90;99.90
25112;DHT22;13092;51.996;4.458;2022-10-17T03:36:47;16.90;99.90
25112;DHT22;13092;51.996;4.458;2022-10-17T03:39:16;16.90;99.90
25112;DHT22;13092;51.996;4.458;2022-10-17T03:41:44;17.00;99.90
25112;DHT22;13092;51.996;4.458;2022-10-17T03:44:12;17.00;99.90
25112;DHT22;13092;51.996;4.458;2022-10-17T03:46:40;17.10;99.90
25112;DHT22;13092;51.996;4.458;2022-10-17T03:49:08;17.10;99.90
25112;DHT22;13092;51.996;4.458;2022-10-17T03:51:36;17.10;99.90
25112;DHT22;13092;51.996;4.458;2022-10-17T03:54:04;17.00;99.90
25112;DHT22;13092;51.996;4.458;2022-10-17T03:56:34;17.10;99.90
25112;DHT22;13092;51.996;4.458;2022-10-17T03:59:02;17.10;99.90
25112;DHT22;13092;51.996;4.458;2022-10-17T04:01:30;17.10;99.90
25112;DHT22;13092;51.996;4.458;2022-10-17T04:03:58;17.10;99.90
25112;DHT22;13092;51.996;4.458;2022-10-17T04:06:26;17.10;99.90
25112;DHT22;13092;51.996;4.458;2022-10-17T04:08:54;17.20;99.90
25112;DHT22;13092;51.996;4.458;2022-10-17T04:11:24;17.10;99.90
25112;DHT22;13092;51.996;4.458;2022-10-17T04:13:55;17.20;99.90
25112;DHT22;13092;51.996;4.458;2022-10-17T04:16:25;17.20;99.90
25112;DHT22;13092;51.996;4.458;2022-10-17T04:18:55;17.20;99.90
25112;DHT22;13092;51.996;4.458;2022-10-17T04:21:24;17.20;99.90
25112;DHT22;13092;51.996;4.458;2022-10-17T04:23:53;17.20;99.90
25112;DHT22;13092;51.996;4.458;2022-10-17T04:26:21;17.20;99.90
25112;DHT22;13092;51.996;4.458;2022-10-17T04:28:49;17.30;99.90
25112;DHT22;13092;51.996;4.458;2022-10-17T04:31:19;17.30;99.90
25112;DHT22;13092;51.996;4.458;2022-10-17T04:33:48;17.30;99.90
25112;DHT22;13092;51.996;4.458;2022-10-17T04:36:18;17.30;99.90
25112;DHT22;13092;51.996;4.458;2022-10-17T04:38:46;17.40;99.90
25112;DHT22;13092;51.996;4.458;2022-10-17T04:41:16;17.30;99.90
25112;DHT22;13092;51.996;4.458;2022-10-17T04:43:44;17.30;99.90
25112;DHT22;13092;51.996;4.458;2022-10-17T04:46:19;17.30;99.90
25112;DHT22;13092;51.996;4.458;2022-10-17T04:48:47;17.30;99.90
25112;DHT22;13092;51.996;4.458;2022-10-17T04:51:16;17.30;99.90
25112;DHT22;13092;51.996;4.458;2022-10-17T04:53:52;17.30;99.90
25112;DHT22;13092;51.996;4.458;2022-10-17T04:56:21;17.30;99.90
25112;DHT22;13092;51.996;4.458;2022-10-17T04:58:50;17.20;99.90
25112;DHT22;13092;51.996;4.458;2022-10-17T05:01:21;17.30;99.90
25112;DHT22;13092;51.996;4.458;2022-10-17T05:03:50;17.20;99.90
25112;DHT22;13092;51.996;4.458;2022-10-17T05:06:19;17.30;99.90
25112;DHT22;13092;51.996;4.458;2022-10-17T05:08:48;17.20;99.90
25112;DHT22;13092;51.996;4.458;2022-10-17T05:11:19;17.30;99.90
25112;DHT22;13092;51.996;4.458;2022-10-17T05:13:51;17.30;99.90
25112;DHT22;13092;51.996;4.458;2022-10-17T05:16:22;17.30;99.90
25112;DHT22;13092;51.996;4.458;2022-10-17T05:18:51;17.30;99.90
25112;DHT22;13092;51.996;4.458;2022-10-17T05:21:20;17.30;99.90
25112;DHT22;13092;51.996;4.458;2022-10-17T05:23:48;17.30;99.90
25112;DHT22;13092;51.996;4.458;2022-10-17T05:26:17;17.40;99.90
25112;DHT22;13092;51.996;4.458;2022-10-17T05:28:45;17.40;99.90
25112;DHT22;13092;51.996;4.458;2022-10-17T05:31:14;17.40;99.90
25112;DHT22;13092;51.996;4.458;2022-10-17T05:33:43;17.40;99.90
25112;DHT22;13092;51.996;4.458;2022-10-17T05:36:11;17.40;99.90
25112;DHT22;13092;51.996;4.458;2022-10-17T05:38:39;17.50;99.90
25112;DHT22;13092;51.996;4.458;2022-10-17T05:41:08;17.50;99.90
25112;DHT22;13092;51.996;4.458;2022-10-17T05:43:36;17.40;99.90
25112;DHT22;13092;51.996;4.458;2022-10-17T05:46:05;17.50;99.90
25112;DHT22;13092;51.996;4.458;2022-10-17T05:48:33;17.50;99.90
25112;DHT22;13092;51.996;4.458;2022-10-17T05:51:05;17.50;99.90
25112;DHT22;13092;51.996;4.458;2022-10-17T05:53:37;17.50;99.90
25112;DHT22;13092;51.996;4.458;2022-10-17T05:56:06;17.50;99.90
25112;DHT22;13092;51.996;4.458;2022-10-17T05:58:35;17.40;99.90
25112;DHT22;13092;51.996;4.458;2022-10-17T06:01:17;17.40;99.90
25112;DHT22;13092;51.996;4.458;2022-10-17T06:03:45;17.30;99.90
25112;DHT22;13092;51.996;4.458;2022-10-17T06:06:15;17.40;99.90
25112;DHT22;13092;51.996;4.458;2022-10-17T06:08:44;17.40;99.90
25112;DHT22;13092;51.996;4.458;2022-10-17T06:11:12;17.40;99.90
25112;DHT22;13092;51.996;4.458;2022-10-17T06:13:40;17.40;99.90
25112;DHT22;13092;51.996;4.458;2022-10-17T06:16:08;17.50;99.90
25112;DHT22;13092;51.996;4.458;2022-10-17T06:18:36;17.40;99.90
25112;DHT22;13092;51.996;4.458;2022-10-17T06:21:06;17.40;99.90
25112;DHT22;13092;51.996;4.458;2022-10-17T06:23:36;17.40;99.90
25112;DHT22;13092;51.996;4.458;2022-10-17T06:26:08;17.40;99.90
25112;DHT22;13092;51.996;4.458;2022-10-17T06:28:36;17.50;99.90
25112;DHT22;13092;51.996;4.458;2022-10-17T06:31:05;17.50;99.90
25112;DHT22;13092;51.996;4.458;2022-10-17T06:33:34;17.50;99.90
25112;DHT22;13092;51.996;4.458;2022-10-17T06:36:03;17.50;99.90
25112;DHT22;13092;51.996;4.458;2022-10-17T06:38:32;17.50;99.90
25112;DHT22;13092;51.996;4.458;2022-10-17T06:41:08;17.50;99.90
25112;DHT22;13092;51.996;4.458;2022-10-17T06:43:37;17.50;99.90
25112;DHT22;13092;51.996;4.458;2022-10-17T06:46:05;17.40;99.90
25112;DHT22;13092;51.996;4.458;2022-10-17T06:48:33;17.40;99.90
25112;DHT22;13092;51.996;4.458;2022-10-17T06:51:02;17.40;99.90
25112;DHT22;13092;51.996;4.458;2022-10-17T06:53:32;17.50;99.90
25112;DHT22;13092;51.996;4.458;2022-10-17T06:56:01;17.50;99.90
25112;DHT22;13092;51.996;4.458;2022-10-17T06:58:34;17.70;99.90
25112;DHT22;13092;51.996;4.458;2022-10-17T07:01:05;17.50;99.90
25112;DHT22;13092;51.996;4.458;2022-10-17T07:03:35;17.60;99.90
25112;DHT22;13092;51.996;4.458;2022-10-17T07:06:04;17.60;99.90
25112;DHT22;13092;51.996;4.458;2022-10-17T07:08:32;17.60;99.90
25112;DHT22;13092;51.996;4.458;2022-10-17T07:11:08;17.60;99.90
25112;DHT22;13092;51.996;4.458;2022-10-17T07:13:37;17.60;99.90
25112;DHT22;13092;51.996;4.458;2022-10-17T07:16:06;17.60;99.90
25112;DHT22;13092;51.996;4.458;2022-10-17T07:18:34;17.70;99.90
25112;DHT22;13092;51.996;4.458;2022-10-17T07:21:03;17.60;99.90
25112;DHT22;13092;51.996;4.458;2022-10-17T07:23:31;17.70;99.90
25112;DHT22;13092;51.996;4.458;2022-10-17T07:26:04;17.70;99.90
25112;DHT22;13092;51.996;4.458;2022-10-17T07:28:33;17.70;99.90
25112;DHT22;13092;51.996;4.458;2022-10-17T07:31:08;17.70;99.90
25112;DHT22;13092;51.996;4.458;2022-10-17T07:33:37;17.80;99.90
25112;DHT22;13092;51.996;4.458;2022-10-17T07:36:05;17.90;99.90
25112;DHT22;13092;51.996;4.458;2022-10-17T07:38:35;17.90;99.90
25112;DHT22;13092;51.996;4.458;2022-10-17T07:41:04;17.90;99.90
25112;DHT22;13092;51.996;4.458;2022-10-17T07:43:33;17.90;99.90
25112;DHT22;13092;51.996;4.458;2022-10-17T07:46:03;18.00;99.90
25112;DHT22;13092;51.996;4.458;2022-10-17T07:48:33;18.00;99.90
25112;DHT22;13092;51.996;4.458;2022-10-17T07:51:02;18.10;99.90
25112;DHT22;13092;51.996;4.458;2022-10-17T07:53:31;18.10;99.90
25112;DHT22;13092;51.996;4.458;2022-10-17T07:56:03;18.20;99.90
25112;DHT22;13092;51.996;4.458;2022-10-17T07:58:31;18.20;99.90
25112;DHT22;13092;51.996;4.458;2022-10-17T08:01:00;18.20;99.90
25112;DHT22;13092;51.996;4.458;2022-10-17T08:03:28;18.20;99.90
25112;DHT22;13092;51.996;4.458;2022-10-17T08:05:58;18.20;99.90
25112;DHT22;13092;51.996;4.458;2022-10-17T08:08:26;18.20;99.90
25112;DHT22;13092;51.996;4.458;2022-10-17T08:10:59;18.20;99.90
25112;DHT22;13092;51.996;4.458;2022-10-17T08:13:28;18.20;99.90
25112;DHT22;13092;51.996;4.458;2022-10-17T08:15:58;18.20;99.90
25112;DHT22;13092;51.996;4.458;2022-10-17T08:18:27;18.20;99.90
25112;DHT22;13092;51.996;4.458;2022-10-17T08:21:00;18.20;99.90
25112;DHT22;13092;51.996;4.458;2022-10-17T08:23:28;18.10;99.90
25112;DHT22;13092;51.996;4.458;2022-10-17T08:25:58;18.10;99.90
25112;DHT22;13092;51.996;4.458;2022-10-17T08:28:29;18.10;99.90
25112;DHT22;13092;51.996;4.458;2022-10-17T08:31:02;18.20;99.90
25112;DHT22;13092;51.996;4.458;2022-10-17T08:33:30;18.10;99.90
25112;DHT22;13092;51.996;4.458;2022-10-17T08:36:00;18.10;99.90
25112;DHT22;13092;51.996;4.458;2022-10-17T08:38:28;18.20;99.90
25112;DHT22;13092;51.996;4.458;2022-10-17T08:41:03;18.20;99.90
25112;DHT22;13092;51.996;4.458;2022-10-17T08:43:41;18.20;99.90
25112;DHT22;13092;51.996;4.458;2022-10-17T08:46:13;18.30;99.90
25112;DHT22;13092;51.996;4.458;2022-10-17T08:48:44;18.30;99.90
25112;DHT22;13092;51.996;4.458;2022-10-17T08:51:17;18.30;99.90
25112;DHT22;13092;51.996;4.458;2022-10-17T08:53:50;18.30;99.90
25112;DHT22;13092;51.996;4.458;2022-10-17T08:56:22;18.30;99.90
25112;DHT22;13092;51.996;4.458;2022-10-17T08:59:10;18.20;99.90
25112;DHT22;13092;51.996;4.458;2022-10-17T09:01:45;18.30;99.90
25112;DHT22;13092;51.996;4.458;2022-10-17T09:04:37;18.30;99.90
25112;DHT22;13092;51.996;4.458;2022-10-17T09:07:14;18.30;99.90
25112;DHT22;13092;51.996;4.458;2022-10-17T09:09:55;18.30;99.90
25112;DHT22;13092;51.996;4.458;2022-10-17T09:12:32;18.30;99.90
25112;DHT22;13092;51.996;4.458;2022-10-17T09:15:26;18.30;99.90
25112;DHT22;13092;51.996;4.458;2022-10-17T09:17:59;18.30;99.90
25112;DHT22;13092;51.996;4.458;2022-10-17T09:20:32;18.40;99.90
25112;DHT22;13092;51.996;4.458;2022-10-17T09:23:05;18.40;99.90
25112;DHT22;13092;51.996;4.458;2022-10-17T09:25:41;18.40;99.90
25112;DHT22;13092;51.996;4.458;2022-10-17T09:28:14;18.40;99.90
25112;DHT22;13092;51.996;4.458;2022-10-17T09:30:45;18.50;99.90
25112;DHT22;13092;51.996;4.458;2022-10-17T09:33:15;18.50;99.90
25112;DHT22;13092;51.996;4.458;2022-10-17T09:36:03;18.40;99.90
25112;DHT22;13092;51.996;4.458;2022-10-17T09:38:39;18.40;99.90
25112;DHT22;13092;51.996;4.458;2022-10-17T09:41:15;18.40;99.90
25112;DHT22;13092;51.996;4.458;2022-10-17T09:44:19;18.30;99.90
25112;DHT22;13092;51.996;4.458;2022-10-17T09:47:01;18.30;99.90
25112;DHT22;13092;51.996;4.458;2022-10-17T09:49:34;18.30;99.90
25112;DHT22;13092;51.996;4.458;2022-10-17T09:52:07;18.30;99.90
25112;DHT22;13092;51.996;4.458;2022-10-17T09:54:43;18.30;99.90
25112;DHT22;13092;51.996;4.458;2022-10-17T09:57:13;18.30;99.90
25112;DHT22;13092;51.996;4.458;2022-10-17T09:59:43;18.30;99.90
25112;DHT22;13092;51.996;4.458;2022-10-17T10:02:19;18.30;99.90
25112;DHT22;13092;51.996;4.458;2022-10-17T10:04:53;18.40;99.90
25112;DHT22;13092;51.996;4.458;2022-10-17T10:07:37;18.20;99.90
25112;DHT22;13092;51.996;4.458;2022-10-17T10:10:22;18.20;99.90
25112;DHT22;13092;51.996;4.458;2022-10-17T10:13:05;18.20;99.90
25112;DHT22;13092;51.996;4.458;2022-10-17T10:15:36;18.10;99.90
25112;DHT22;13092;51.996;4.458;2022-10-17T10:18:29;18.20;99.90
25112;DHT22;13092;51.996;4.458;2022-10-17T10:21:07;18.00;99.90
25112;DHT22;13092;51.996;4.458;2022-10-17T10:23:36;18.00;99.90
25112;DHT22;13092;51.996;4.458;2022-10-17T10:26:20;18.00;99.90
25112;DHT22;13092;51.996;4.458;2022-10-17T10:28:55;17.90;99.90
25112;DHT22;13092;51.996;4.458;2022-10-17T10:31:32;17.90;99.90
25112;DHT22;13092;51.996;4.458;2022-10-17T10:34:10;18.00;99.90
25112;DHT22;13092;51.996;4.458;2022-10-17T10:36:51;17.90;99.90
25112;DHT22;13092;51.996;4.458;2022-10-17T10:39:31;17.90;99.90
25112;DHT22;13092;51.996;4.458;2022-10-17T10:42:03;17.90;99.90
25112;DHT22;13092;51.996;4.458;2022-10-17T10:44:33;17.80;99.90
25112;DHT22;13092;51.996;4.458;2022-10-17T10:47:15;17.80;99.90
25112;DHT22;13092;51.996;4.458;2022-10-17T10:49:44;17.70;99.90
25112;DHT22;13092;51.996;4.458;2022-10-17T10:52:29;17.70;99.90
25112;DHT22;13092;51.996;4.458;2022-10-17T10:55:05;17.60;99.90
25112;DHT22;13092;51.996;4.458;2022-10-17T10:57:43;17.50;99.90
25112;DHT22;13092;51.996;4.458;2022-10-17T11:00:15;17.40;99.90
25112;DHT22;13092;51.996;4.458;2022-10-17T11:02:51;17.30;99.90
25112;DHT22;13092;51.996;4.458;2022-10-17T11:05:33;17.20;99.90
25112;DHT22;13092;51.996;4.458;2022-10-17T11:08:07;17.20;99.90
25112;DHT22;13092;51.996;4.458;2022-10-17T11:10:43;17.20;99.90
25112;DHT22;13092;51.996;4.458;2022-10-17T11:13:20;17.30;99.90
25112;DHT22;13092;51.996;4.458;2022-10-17T11:15:54;17.40;99.90
25112;DHT22;13092;51.996;4.458;2022-10-17T11:18:29;17.40;99.90
25112;DHT22;13092;51.996;4.458;2022-10-17T11:21:04;17.40;99.90
25112;DHT22;13092;51.996;4.458;2022-10-17T11:23:40;17.50;99.90
25112;DHT22;13092;51.996;4.458;2022-10-17T11:26:12;17.60;99.90
25112;DHT22;13092;51.996;4.458;2022-10-17T11:28:42;17.70;99.90
25112;DHT22;13092;51.996;4.458;2022-10-17T11:31:12;17.70;99.90
25112;DHT22;13092;51.996;4.458;2022-10-17T11:33:45;17.90;99.90
25112;DHT22;13092;51.996;4.458;2022-10-17T11:36:15;17.90;99.90
25112;DHT22;13092;51.996;4.458;2022-10-17T11:38:46;18.00;99.90
25112;DHT22;13092;51.996;4.458;2022-10-17T11:41:19;18.00;99.90
25112;DHT22;13092;51.996;4.458;2022-10-17T11:43:53;18.10;99.90
25112;DHT22;13092;51.996;4.458;2022-10-17T11:46:23;18.10;99.90
25112;DHT22;13092;51.996;4.458;2022-10-17T11:48:59;18.30;99.90
25112;DHT22;13092;51.996;4.458;2022-10-17T11:51:39;18.40;99.90
25112;DHT22;13092;51.996;4.458;2022-10-17T11:54:32;18.40;99.90
25112;DHT22;13092;51.996;4.458;2022-10-17T11:57:13;18.50;99.90
25112;DHT22;13092;51.996;4.458;2022-10-17T11:59:55;18.60;99.90
25112;DHT22;13092;51.996;4.458;2022-10-17T12:02:31;18.70;99.90
25112;DHT22;13092;51.996;4.458;2022-10-17T12:05:08;18.80;99.90
25112;DHT22;13092;51.996;4.458;2022-10-17T12:07:45;18.70;99.90
25112;DHT22;13092;51.996;4.458;2022-10-17T12:10:23;18.80;99.90
25112;DHT22;13092;51.996;4.458;2022-10-17T12:12:53;18.90;99.90
25112;DHT22;13092;51.996;4.458;2022-10-17T12:15:30;18.90;99.90
25112;DHT22;13092;51.996;4.458;2022-10-17T12:18:00;19.00;99.90
25112;DHT22;13092;51.996;4.458;2022-10-17T12:20:32;19.00;99.90
25112;DHT22;13092;51.996;4.458;2022-10-17T12:23:17;19.10;99.90
25112;DHT22;13092;51.996;4.458;2022-10-17T12:25:48;19.10;99.90
25112;DHT22;13092;51.996;4.458;2022-10-17T12:28:20;19.10;99.90
25112;DHT22;13092;51.996;4.458;2022-10-17T12:30:58;19.20;99.90
25112;DHT22;13092;51.996;4.458;2022-10-17T12:33:32;19.20;99.90
25112;DHT22;13092;51.996;4.458;2022-10-17T12:45:47;19.40;99.90
25112;DHT22;13092;51.996;4.458;2022-10-17T12:54:39;19.30;99.90
25112;DHT22;13092;51.996;4.458;2022-10-17T12:57:31;19.20;99.90
25112;DHT22;13092;51.996;4.458;2022-10-17T13:00:03;19.00;99.90
25112;DHT22;13092;51.996;4.458;2022-10-17T13:02:32;19.10;99.90
25112;DHT22;13092;51.996;4.458;2022-10-17T13:05:06;19.10;99.90
25112;DHT22;13092;51.996;4.458;2022-10-17T13:07:35;19.10;99.90
25112;DHT22;13092;51.996;4.458;2022-10-17T13:10:20;19.20;99.90
25112;DHT22;13092;51.996;4.458;2022-10-17T13:12:50;19.10;99.90
25112;DHT22;13092;51.996;4.458;2022-10-17T13:15:19;19.10;99.90
25112;DHT22;13092;51.996;4.458;2022-10-17T13:17:55;19.10;99.90
25112;DHT22;13092;51.996;4.458;2022-10-17T13:20:26;19.20;99.90
25112;DHT22;13092;51.996;4.458;2022-10-17T13:22:57;19.10;99.90
25112;DHT22;13092;51.996;4.458;2022-10-17T13:25:27;19.10;99.90
25112;DHT22;13092;51.996;4.458;2022-10-17T13:28:09;19.10;99.90
25112;DHT22;13092;51.996;4.458;2022-10-17T13:30:39;19.20;99.90
25112;DHT22;13092;51.996;4.458;2022-10-17T13:33:29;19.10;99.90
25112;DHT22;13092;51.996;4.458;2022-10-17T13:35:58;19.20;99.90
25112;DHT22;13092;51.996;4.458;2022-10-17T13:38:29;19.10;99.90
25112;DHT22;13092;51.996;4.458;2022-10-17T13:41:10;19.30;99.90
25112;DHT22;13092;51.996;4.458;2022-10-17T13:44:00;19.20;99.90
25112;DHT22;13092;51.996;4.458;2022-10-17T13:46:31;19.30;99.90
25112;DHT22;13092;51.996;4.458;2022-10-17T13:49:19;19.30;99.90
25112;DHT22;13092;51.996;4.458;2022-10-17T13:51:54;19.40;99.90
25112;DHT22;13092;51.996;4.458;2022-10-17T13:54:35;19.30;99.90
25112;DHT22;13092;51.996;4.458;2022-10-17T13:57:15;19.30;99.90
25112;DHT22;13092;51.996;4.458;2022-10-17T13:59:45;19.30;99.90
25112;DHT22;13092;51.996;4.458;2022-10-17T14:02:16;19.40;99.90
25112;DHT22;13092;51.996;4.458;2022-10-17T14:04:45;19.40;99.90
25112;DHT22;13092;51.996;4.458;2022-10-17T14:07:36;19.50;99.90
25112;DHT22;13092;51.996;4.458;2022-10-17T14:10:28;19.40;99.90
25112;DHT22;13092;51.996;4.458;2022-10-17T14:12:59;19.40;99.90
25112;DHT22;13092;51.996;4.458;2022-10-17T14:15:32;19.40;99.90
25112;DHT22;13092;51.996;4.458;2022-10-17T14:18:03;19.50;99.90
25112;DHT22;13092;51.996;4.458;2022-10-17T14:20:34;19.40;99.90
25112;DHT22;13092;51.996;4.458;2022-10-17T14:23:31;19.40;99.90
25112;DHT22;13092;51.996;4.458;2022-10-17T14:26:07;19.30;99.90
25112;DHT22;13092;51.996;4.458;2022-10-17T14:28:37;19.20;99.90
25112;DHT22;13092;51.996;4.458;2022-10-17T14:31:12;19.30;99.90
25112;DHT22;13092;51.996;4.458;2022-10-17T14:33:44;19.20;99.90
25112;DHT22;13092;51.996;4.458;2022-10-17T14:36:17;19.10;99.90
25112;DHT22;13092;51.996;4.458;2022-10-17T14:38:49;19.10;99.90
25112;DHT22;13092;51.996;4.458;2022-10-17T14:41:22;19.10;99.90
25112;DHT22;13092;51.996;4.458;2022-10-17T14:44:23;19.10;99.90
25112;DHT22;13092;51.996;4.458;2022-10-17T14:46:55;19.10;99.90
25112;DHT22;13092;51.996;4.458;2022-10-17T14:49:33;19.10;99.90
25112;DHT22;13092;51.996;4.458;2022-10-17T14:52:27;19.10;99.90
25112;DHT22;13092;51.996;4.458;2022-10-17T14:54:57;19.10;99.90
25112;DHT22;13092;51.996;4.458;2022-10-17T14:57:33;19.20;99.90
25112;DHT22;13092;51.996;4.458;2022-10-17T15:00:03;19.20;99.90
25112;DHT22;13092;51.996;4.458;2022-10-17T15:02:31;19.20;99.90
25112;DHT22;13092;51.996;4.458;2022-10-17T15:05:00;19.20;99.90
25112;DHT22;13092;51.996;4.458;2022-10-17T15:07:28;19.10;99.90
25112;DHT22;13092;51.996;4.458;2022-10-17T15:09:56;19.10;99.90
25112;DHT22;13092;51.996;4.458;2022-10-17T15:12:25;19.10;99.90
25112;DHT22;13092;51.996;4.458;2022-10-17T15:14:53;19.10;99.90
25112;DHT22;13092;51.996;4.458;2022-10-17T15:17:25;19.10;99.90
25112;DHT22;13092;51.996;4.458;2022-10-17T15:19:54;19.00;99.90
25112;DHT22;13092;51.996;4.458;2022-10-17T15:22:23;19.00;99.90
25112;DHT22;13092;51.996;4.458;2022-10-17T15:24:51;18.90;99.90
25112;DHT22;13092;51.996;4.458;2022-10-17T15:27:22;18.90;99.90
25112;DHT22;13092;51.996;4.458;2022-10-17T15:29:51;19.00;99.90
25112;DHT22;13092;51.996;4.458;2022-10-17T15:32:19;18.90;99.90
25112;DHT22;13092;51.996;4.458;2022-10-17T15:34:49;18.70;99.90
25112;DHT22;13092;51.996;4.458;2022-10-17T15:37:19;18.80;99.90
25112;DHT22;13092;51.996;4.458;2022-10-17T15:39:49;18.80;99.90
25112;DHT22;13092;51.996;4.458;2022-10-17T15:42:20;18.80;99.90
25112;DHT22;13092;51.996;4.458;2022-10-17T15:44:48;18.80;99.90
25112;DHT22;13092;51.996;4.458;2022-10-17T15:47:23;18.70;99.90
25112;DHT22;13092;51.996;4.458;2022-10-17T15:49:53;18.70;99.90
25112;DHT22;13092;51.996;4.458;2022-10-17T15:52:22;18.60;99.90
25112;DHT22;13092;51.996;4.458;2022-10-17T15:54:50;18.60;99.90
25112;DHT22;13092;51.996;4.458;2022-10-17T15:57:21;18.60;99.90
25112;DHT22;13092;51.996;4.458;2022-10-17T15:59:51;18.60;99.90
25112;DHT22;13092;51.996;4.458;2022-10-17T16:02:21;18.50;99.90
25112;DHT22;13092;51.996;4.458;2022-10-17T16:04:50;18.50;99.90
25112;DHT22;13092;51.996;4.458;2022-10-17T16:07:20;18.50;99.90
25112;DHT22;13092;51.996;4.458;2022-10-17T16:09:48;18.40;99.90
25112;DHT22;13092;51.996;4.458;2022-10-17T16:12:18;18.40;99.90
25112;DHT22;13092;51.996;4.458;2022-10-17T16:14:48;18.40;99.90
25112;DHT22;13092;51.996;4.458;2022-10-17T16:17:16;18.40;99.90
25112;DHT22;13092;51.996;4.458;2022-10-17T16:19:44;18.30;99.90
25112;DHT22;13092;51.996;4.458;2022-10-17T16:22:20;18.30;99.90